Time;durP1;ratioP1;P1;durP2;ratioP2;P2;SDS_P1;SDS_P2;PMS_P1;PMS_P2;Temp;Humidity;BMP_temperature;BMP_pressure;BME280_temperature;BME280_humidity;BME280_pressure;Samples;Min_cycle;Max_cycle;Signal;HPM_P1;HPM_P2
2022/11/13 00:00:03;;;;;;;13.43;9.50;;;;;;;;;;5051544;28;20117;-68
2022/11/13 00:02:28;;;;;;;16.83;10.07;;;;;;;;;;5049252;28;20864;-68
2022/11/13 00:04:53;;;;;;;14.32;9.75;;;;;;;;;;5047927;28;20108;-68
2022/11/13 00:07:19;;;;;;;13.05;9.48;;;;;;;;;;5052306;28;20102;-68
2022/11/13 00:09:44;;;;;;;17.58;10.65;;;;;;;;;;5053099;28;20040;-68
2022/11/13 00:12:09;;;;;;;17.30;9.38;;;;;;;;;;5053136;28;20029;-68
2022/11/13 00:14:34;;;;;;;14.17;10.07;;;;;;;;;;5052349;28;20017;-68
2022/11/13 00:16:59;;;;;;;12.03;8.87;;;;;;;;;;5052052;28;20371;-68
2022/11/13 00:19:25;;;;;;;19.00;11.27;;;;;;;;;;5052657;28;20394;-68
2022/11/13 00:21:50;;;;;;;14.77;11.13;;;;;;;;;;5052687;28;20104;-68
2022/11/13 00:24:15;;;;;;;12.15;8.55;;;;;;;;;;5048956;28;20455;-68
2022/11/13 00:26:41;;;;;;;10.73;8.52;;;;;;;;;;5052427;28;20479;-68
2022/11/13 00:29:07;;;;;;;12.00;9.27;;;;;;;;;;5051079;28;20025;-68
2022/11/13 00:31:32;;;;;;;16.02;8.88;;;;;;;;;;5049156;28;20104;-68
2022/11/13 00:34:01;;;;;;;15.07;10.00;;;;;;;;;;5037167;28;20020;-68
2022/11/13 00:36:27;;;;;;;18.05;9.77;;;;;;;;;;5046157;28;20018;-68
2022/11/13 00:38:52;;;;;;;15.35;10.02;;;;;;;;;;5052424;28;20032;-68
2022/11/13 00:41:18;;;;;;;16.42;10.77;;;;;;;;;;5049921;28;20017;-68
2022/11/13 00:43:43;;;;;;;15.88;10.20;;;;;;;;;;5052055;28;20029;-68
2022/11/13 00:46:08;;;;;;;16.23;9.70;;;;;;;;;;5049764;28;20050;-68
2022/11/13 00:48:34;;;;;;;13.18;10.02;;;;;;;;;;5051965;28;20099;-67
2022/11/13 00:51:00;;;;;;;12.48;9.60;;;;;;;;;;5052286;28;20031;-67
2022/11/13 00:53:25;;;;;;;17.42;10.52;;;;;;;;;;5051872;28;20078;-68
2022/11/13 00:55:51;;;;;;;22.58;11.40;;;;;;;;;;5041572;28;20104;-68
2022/11/13 00:58:16;;;;;;;12.95;10.20;;;;;;;;;;5048125;28;20017;-68
2022/11/13 01:00:42;;;;;;;14.10;9.57;;;;;;;;;;5052000;28;20017;-68
2022/11/13 01:03:08;;;;;;;17.73;11.15;;;;;;;;;;5050390;28;20352;-68
2022/11/13 01:05:41;;;;;;;12.95;9.35;;;;;;;;;;5045496;28;20041;-68
2022/11/13 01:08:06;;;;;;;14.88;10.70;;;;;;;;;;5045406;28;20028;-68
2022/11/13 01:10:33;;;;;;;11.35;8.60;;;;;;;;;;5047433;28;20009;-68
2022/11/13 01:12:58;;;;;;;12.32;8.75;;;;;;;;;;5035076;28;20033;-68
2022/11/13 01:15:23;;;;;;;10.98;9.18;;;;;;;;;;5045784;28;20017;-68
2022/11/13 01:17:50;;;;;;;15.57;10.02;;;;;;;;;;5051911;28;20013;-68
2022/11/13 01:20:15;;;;;;;16.88;11.10;;;;;;;;;;5050646;28;20459;-68
2022/11/13 01:22:41;;;;;;;12.32;10.00;;;;;;;;;;5051755;28;20017;-68
2022/11/13 01:25:06;;;;;;;13.40;10.10;;;;;;;;;;5050178;28;20048;-68
2022/11/13 01:27:34;;;;;;;18.73;10.38;;;;;;;;;;5048254;28;20025;-68
2022/11/13 01:29:59;;;;;;;12.85;10.75;;;;;;;;;;5042911;28;20093;-67
2022/11/13 01:32:24;;;;;;;13.52;9.93;;;;;;;;;;5046166;28;20105;-68
2022/11/13 01:34:50;;;;;;;18.95;9.05;;;;;;;;;;5040310;28;20029;-68
2022/11/13 01:37:15;;;;;;;16.30;9.45;;;;;;;;;;5034716;28;20062;-68
2022/11/13 01:39:40;;;;;;;15.38;10.13;;;;;;;;;;5051932;28;20021;-68
2022/11/13 01:42:05;;;;;;;10.93;9.68;;;;;;;;;;5049772;28;20064;-68
2022/11/13 01:44:51;;;;;;;16.50;11.02;;;;;;;;;;5040901;28;20108;-68
2022/11/13 01:47:17;;;;;;;14.85;11.13;;;;;;;;;;5050816;28;20069;-68
2022/11/13 01:49:43;;;;;;;17.25;11.65;;;;;;;;;;5050928;28;20021;-68
2022/11/13 01:52:11;;;;;;;14.60;9.93;;;;;;;;;;5050938;28;20407;-68
2022/11/13 01:54:39;;;;;;;18.45;10.77;;;;;;;;;;5051786;28;20051;-68
2022/11/13 01:57:04;;;;;;;12.43;10.80;;;;;;;;;;5051041;28;20032;-68
2022/11/13 01:59:33;;;;;;;16.13;11.13;;;;;;;;;;5051369;28;20017;-68
2022/11/13 02:01:59;;;;;;;13.93;10.05;;;;;;;;;;5050998;28;20009;-68
2022/11/13 02:04:24;;;;;;;13.93;10.38;;;;;;;;;;5053369;28;20021;-68
2022/11/13 02:06:51;;;;;;;15.80;10.70;;;;;;;;;;5049425;28;20025;-68
2022/11/13 02:09:19;;;;;;;14.32;11.45;;;;;;;;;;5054940;28;20427;-68
2022/11/13 02:11:44;;;;;;;11.77;9.82;;;;;;;;;;5046973;28;20063;-68
2022/11/13 02:14:10;;;;;;;19.33;10.73;;;;;;;;;;5049442;28;20029;-68
2022/11/13 02:16:36;;;;;;;14.68;10.25;;;;;;;;;;5054950;28;20056;-68
2022/11/13 02:19:05;;;;;;;17.40;11.02;;;;;;;;;;5055085;28;20021;-68
2022/11/13 02:21:30;;;;;;;17.52;10.18;;;;;;;;;;5053159;28;20080;-68
2022/11/13 02:24:07;;;;;;;14.63;10.87;;;;;;;;;;5052437;28;20431;-68
2022/11/13 02:26:33;;;;;;;17.63;10.98;;;;;;;;;;5054543;28;20268;-68
2022/11/13 02:28:58;;;;;;;17.73;11.82;;;;;;;;;;5054568;28;20036;-68
2022/11/13 02:31:24;;;;;;;18.15;12.38;;;;;;;;;;5054232;28;20024;-68
2022/11/13 02:33:49;;;;;;;12.80;11.02;;;;;;;;;;5047050;28;20040;-68
2022/11/13 02:36:15;;;;;;;18.13;11.45;;;;;;;;;;5048001;28;20429;-68
2022/11/13 02:38:41;;;;;;;16.98;11.88;;;;;;;;;;5041917;28;20079;-68
2022/11/13 02:41:06;;;;;;;17.23;11.85;;;;;;;;;;5054554;28;20017;-68
2022/11/13 02:43:31;;;;;;;16.98;11.73;;;;;;;;;;5053934;28;20025;-68
2022/11/13 02:45:56;;;;;;;14.05;10.88;;;;;;;;;;5054411;28;20554;-68
2022/11/13 02:48:22;;;;;;;13.98;10.13;;;;;;;;;;5051931;28;20475;-68
2022/11/13 02:50:47;;;;;;;13.15;10.20;;;;;;;;;;5044141;28;20005;-67
2022/11/13 02:53:12;;;;;;;15.90;10.73;;;;;;;;;;5054627;28;20029;-68
2022/11/13 02:55:37;;;;;;;14.65;10.50;;;;;;;;;;5053376;28;20066;-68
2022/11/13 02:58:02;;;;;;;17.08;11.98;;;;;;;;;;5054116;28;20020;-68
2022/11/13 03:00:28;;;;;;;16.83;12.45;;;;;;;;;;5054014;28;20048;-68
2022/11/13 03:02:54;;;;;;;18.58;13.15;;;;;;;;;;5054377;28;20013;-68
2022/11/13 03:05:20;;;;;;;18.08;13.32;;;;;;;;;;5053982;28;20025;-68
2022/11/13 03:07:45;;;;;;;17.67;13.13;;;;;;;;;;5050722;28;20025;-68
2022/11/13 03:10:10;;;;;;;15.17;10.93;;;;;;;;;;5053913;28;20033;-68
2022/11/13 03:12:36;;;;;;;14.60;11.68;;;;;;;;;;5051578;28;20287;-68
2022/11/13 03:15:01;;;;;;;15.82;12.23;;;;;;;;;;5036880;28;20819;-68
2022/11/13 03:17:29;;;;;;;14.10;11.10;;;;;;;;;;5033477;28;20862;-68
2022/11/13 03:19:54;;;;;;;23.95;11.52;;;;;;;;;;5052429;28;20424;-68
2022/11/13 03:22:20;;;;;;;14.43;10.98;;;;;;;;;;5053442;28;20060;-68
2022/11/13 03:24:45;;;;;;;22.02;12.18;;;;;;;;;;5051730;28;20017;-68
2022/11/13 03:27:10;;;;;;;15.23;11.55;;;;;;;;;;5053944;28;20087;-68
2022/11/13 03:29:36;;;;;;;21.98;13.07;;;;;;;;;;5053540;28;20039;-68
2022/11/13 03:32:02;;;;;;;21.77;12.77;;;;;;;;;;5047239;28;20021;-68
2022/11/13 03:34:27;;;;;;;15.60;12.52;;;;;;;;;;5040317;28;20365;-68
2022/11/13 03:36:52;;;;;;;18.40;14.10;;;;;;;;;;5050756;28;20021;-68
2022/11/13 03:39:17;;;;;;;12.47;9.83;;;;;;;;;;5047414;28;20017;-68
2022/11/13 03:41:43;;;;;;;15.73;10.70;;;;;;;;;;5052624;28;20279;-68
2022/11/13 03:44:08;;;;;;;15.10;11.83;;;;;;;;;;5053299;28;20298;-68
2022/11/13 03:46:33;;;;;;;20.90;13.13;;;;;;;;;;5053202;28;20633;-68
2022/11/13 03:48:58;;;;;;;18.27;12.90;;;;;;;;;;5039441;28;20071;-69
2022/11/13 03:51:23;;;;;;;10.48;9.27;;;;;;;;;;5032289;28;20021;-68
2022/11/13 03:53:49;;;;;;;15.77;12.00;;;;;;;;;;5049827;28;20067;-68
2022/11/13 03:56:14;;;;;;;13.05;10.18;;;;;;;;;;5044006;28;20017;-68
2022/11/13 03:58:39;;;;;;;20.03;13.10;;;;;;;;;;5047413;28;20024;-68
2022/11/13 04:01:04;;;;;;;19.23;13.30;;;;;;;;;;5052376;28;20328;-68
2022/11/13 04:03:30;;;;;;;18.83;14.23;;;;;;;;;;5053270;28;20024;-68
2022/11/13 04:05:55;;;;;;;18.52;13.80;;;;;;;;;;5051863;28;20013;-68
2022/11/13 04:08:20;;;;;;;16.73;14.27;;;;;;;;;;5052227;28;20024;-68
2022/11/13 04:10:46;;;;;;;16.95;13.75;;;;;;;;;;5051780;28;20278;-69
2022/11/13 04:13:11;;;;;;;13.68;11.48;;;;;;;;;;5052729;28;20076;-69
2022/11/13 04:15:36;;;;;;;15.57;12.82;;;;;;;;;;5052532;28;20029;-69
2022/11/13 04:18:01;;;;;;;22.30;12.98;;;;;;;;;;5052404;28;20059;-69
2022/11/13 04:20:27;;;;;;;14.75;11.75;;;;;;;;;;5050121;28;20021;-68
2022/11/13 04:22:53;;;;;;;18.50;12.57;;;;;;;;;;5052571;28;20016;-68
2022/11/13 04:25:18;;;;;;;18.00;12.75;;;;;;;;;;5052926;28;20013;-68
2022/11/13 04:27:43;;;;;;;13.57;11.52;;;;;;;;;;5051580;28;20017;-68
2022/11/13 04:30:09;;;;;;;23.38;13.93;;;;;;;;;;5052747;28;20455;-68
2022/11/13 04:32:34;;;;;;;16.15;13.10;;;;;;;;;;5051560;28;20143;-68
2022/11/13 04:34:59;;;;;;;18.13;14.20;;;;;;;;;;5052076;28;20017;-68
2022/11/13 04:37:24;;;;;;;23.92;14.60;;;;;;;;;;5043759;28;20013;-68
2022/11/13 04:39:50;;;;;;;25.35;14.52;;;;;;;;;;5045922;28;20048;-68
2022/11/13 04:44:59;;;;;;;19.88;14.38;;;;;;;;;;5051454;28;20044;-68
2022/11/13 04:47:24;;;;;;;17.47;13.37;;;;;;;;;;5039067;28;20029;-68
2022/11/13 04:49:49;;;;;;;24.98;16.20;;;;;;;;;;5050392;28;20285;-68
2022/11/13 04:52:14;;;;;;;20.77;16.13;;;;;;;;;;5052201;28;20375;-68
2022/11/13 04:54:40;;;;;;;22.33;15.52;;;;;;;;;;5045842;28;20454;-68
2022/11/13 04:57:05;;;;;;;23.35;16.00;;;;;;;;;;5046442;28;20033;-68
2022/11/13 04:59:30;;;;;;;23.75;15.93;;;;;;;;;;5052000;28;20024;-68
2022/11/13 05:01:56;;;;;;;21.58;15.20;;;;;;;;;;5051961;28;20044;-68
2022/11/13 05:04:21;;;;;;;24.33;15.85;;;;;;;;;;5052172;28;20401;-68
2022/11/13 05:06:46;;;;;;;22.30;14.63;;;;;;;;;;5051778;28;20075;-68
2022/11/13 05:09:11;;;;;;;21.77;15.25;;;;;;;;;;5050316;28;20013;-68
2022/11/13 05:11:36;;;;;;;18.10;14.15;;;;;;;;;;5046513;28;20025;-68
2022/11/13 05:14:03;;;;;;;22.50;15.55;;;;;;;;;;5050601;28;20483;-68
2022/11/13 05:16:28;;;;;;;19.13;15.10;;;;;;;;;;5051948;28;20383;-68
2022/11/13 05:18:53;;;;;;;28.92;16.10;;;;;;;;;;5051809;28;20029;-68
2022/11/13 05:21:19;;;;;;;20.55;14.40;;;;;;;;;;5048825;28;20352;-68
2022/11/13 05:23:44;;;;;;;18.77;14.75;;;;;;;;;;5033880;28;20401;-68
2022/11/13 05:26:10;;;;;;;18.00;14.67;;;;;;;;;;5046506;28;20021;-68
2022/11/13 05:28:36;;;;;;;17.17;14.02;;;;;;;;;;5051880;28;20287;-68
2022/11/13 05:31:04;;;;;;;19.50;13.68;;;;;;;;;;5050158;28;20386;-68
2022/11/13 05:33:29;;;;;;;20.73;13.57;;;;;;;;;;5051892;28;20021;-68
2022/11/13 05:35:59;;;;;;;17.40;13.13;;;;;;;;;;5051715;28;20091;-68
2022/11/13 05:38:24;;;;;;;18.27;13.57;;;;;;;;;;5052259;28;20059;-68
2022/11/13 05:40:49;;;;;;;17.35;13.50;;;;;;;;;;5055481;28;20028;-68
2022/11/13 05:43:14;;;;;;;18.20;13.57;;;;;;;;;;5055605;28;20048;-68
2022/11/13 05:45:40;;;;;;;16.92;13.60;;;;;;;;;;5055665;28;20021;-68
2022/11/13 05:48:05;;;;;;;16.50;13.90;;;;;;;;;;5055754;28;20021;-68
2022/11/13 05:50:30;;;;;;;15.82;12.73;;;;;;;;;;5054141;28;20511;-68
2022/11/13 05:52:56;;;;;;;16.02;12.95;;;;;;;;;;5056000;28;20041;-68
2022/11/13 05:55:21;;;;;;;17.00;12.63;;;;;;;;;;5054835;28;20021;-68
2022/11/13 05:57:46;;;;;;;15.90;11.85;;;;;;;;;;5052111;28;20016;-68
2022/11/13 06:00:12;;;;;;;20.88;11.50;;;;;;;;;;5055291;28;20061;-68
2022/11/13 06:02:37;;;;;;;15.35;11.95;;;;;;;;;;5054885;28;20021;-68
2022/11/13 06:05:02;;;;;;;21.70;12.15;;;;;;;;;;5049026;28;20017;-68
2022/11/13 06:07:27;;;;;;;18.25;12.30;;;;;;;;;;5050279;28;20017;-68
2022/11/13 06:09:53;;;;;;;17.02;12.30;;;;;;;;;;5050013;28;20028;-68
2022/11/13 06:12:18;;;;;;;16.27;12.13;;;;;;;;;;5042760;28;20033;-68
2022/11/13 06:14:43;;;;;;;15.73;11.75;;;;;;;;;;5042973;28;20276;-68
2022/11/13 06:17:08;;;;;;;12.93;11.38;;;;;;;;;;5041331;28;20060;-68
2022/11/13 06:19:34;;;;;;;16.23;11.32;;;;;;;;;;5035335;28;20025;-68
2022/11/13 06:21:59;;;;;;;13.93;10.85;;;;;;;;;;5051109;28;20733;-68
2022/11/13 06:24:24;;;;;;;18.57;12.90;;;;;;;;;;5054958;28;20489;-68
2022/11/13 06:26:49;;;;;;;17.75;11.43;;;;;;;;;;5050499;28;20757;-68
2022/11/13 06:29:15;;;;;;;15.05;11.60;;;;;;;;;;5054494;28;20360;-68
2022/11/13 06:31:40;;;;;;;17.13;12.80;;;;;;;;;;5054329;28;20374;-69
2022/11/13 06:34:05;;;;;;;18.63;13.13;;;;;;;;;;5051278;28;20357;-74
2022/11/13 06:36:31;;;;;;;15.70;11.82;;;;;;;;;;5045301;28;20456;-69
2022/11/13 06:38:57;;;;;;;14.82;11.55;;;;;;;;;;5053994;28;20075;-70
2022/11/13 06:41:24;;;;;;;19.58;12.27;;;;;;;;;;5053700;28;20421;-71
2022/11/13 06:43:50;;;;;;;16.40;11.40;;;;;;;;;;5054651;28;20136;-68
2022/11/13 06:46:16;;;;;;;14.15;10.73;;;;;;;;;;5055006;28;20494;-68
2022/11/13 06:48:42;;;;;;;14.20;11.13;;;;;;;;;;5048073;28;20072;-69
2022/11/13 06:51:10;;;;;;;16.50;12.63;;;;;;;;;;5053877;28;20040;-68
2022/11/13 06:53:35;;;;;;;14.45;11.50;;;;;;;;;;5054488;28;20029;-69
2022/11/13 06:56:00;;;;;;;15.15;10.50;;;;;;;;;;5048436;28;20544;-68
2022/11/13 06:58:26;;;;;;;14.75;11.55;;;;;;;;;;5044750;28;20433;-68
2022/11/13 07:00:51;;;;;;;16.40;12.18;;;;;;;;;;5051418;28;20112;-69
2022/11/13 07:03:18;;;;;;;14.70;11.75;;;;;;;;;;5044304;28;20055;-69
2022/11/13 07:05:43;;;;;;;16.38;12.43;;;;;;;;;;5045684;28;20029;-69
2022/11/13 07:08:09;;;;;;;16.00;11.05;;;;;;;;;;5054057;28;20035;-69
2022/11/13 07:10:34;;;;;;;19.25;12.32;;;;;;;;;;5049342;28;20431;-69
2022/11/13 07:12:59;;;;;;;17.70;13.82;;;;;;;;;;5049283;28;20033;-69
2022/11/13 07:15:25;;;;;;;19.25;12.90;;;;;;;;;;5044816;28;20027;-69
2022/11/13 07:17:50;;;;;;;17.48;12.73;;;;;;;;;;5053780;28;20068;-68
2022/11/13 07:20:15;;;;;;;16.10;12.30;;;;;;;;;;5054056;28;20017;-69
2022/11/13 07:22:41;;;;;;;19.30;13.98;;;;;;;;;;5046146;28;20276;-68
2022/11/13 07:25:06;;;;;;;18.95;13.35;;;;;;;;;;5049173;28;20033;-68
2022/11/13 07:27:31;;;;;;;16.42;13.35;;;;;;;;;;5053545;28;20012;-68
2022/11/13 07:29:57;;;;;;;18.00;13.27;;;;;;;;;;5044277;28;20468;-68
2022/11/13 07:32:22;;;;;;;29.23;20.67;;;;;;;;;;5053008;28;20479;-68
2022/11/13 07:34:47;;;;;;;28.33;19.05;;;;;;;;;;5038187;28;20368;-67
2022/11/13 07:37:12;;;;;;;33.65;23.95;;;;;;;;;;5053377;28;20591;-68
2022/11/13 07:39:38;;;;;;;30.00;20.50;;;;;;;;;;5053748;28;20104;-68
2022/11/13 07:42:03;;;;;;;38.17;22.63;;;;;;;;;;5035069;28;20056;-69
2022/11/13 07:44:28;;;;;;;33.15;21.63;;;;;;;;;;5046162;28;20029;-69
2022/11/13 07:46:53;;;;;;;39.42;23.88;;;;;;;;;;5048653;28;20463;-69
2022/11/13 07:49:19;;;;;;;35.08;22.52;;;;;;;;;;5053116;28;20071;-69
2022/11/13 07:51:44;;;;;;;53.20;28.25;;;;;;;;;;5052920;28;20029;-69
2022/11/13 07:54:09;;;;;;;46.75;28.45;;;;;;;;;;5053029;28;20430;-69
2022/11/13 07:56:34;;;;;;;43.95;24.50;;;;;;;;;;5051401;28;20060;-69
2022/11/13 07:58:59;;;;;;;31.13;18.63;;;;;;;;;;5045459;28;20032;-69
2022/11/13 08:01:25;;;;;;;36.30;21.65;;;;;;;;;;5045832;28;20017;-69
2022/11/13 08:03:50;;;;;;;41.95;24.40;;;;;;;;;;5041341;28;20105;-69
2022/11/13 08:06:15;;;;;;;37.87;23.57;;;;;;;;;;5046926;28;20097;-70
2022/11/13 08:08:40;;;;;;;26.20;18.80;;;;;;;;;;5052486;28;20371;-69
2022/11/13 08:11:07;;;;;;;32.00;20.38;;;;;;;;;;5041430;28;20033;-69
2022/11/13 08:13:33;;;;;;;21.83;14.48;;;;;;;;;;5050902;28;20035;-69
2022/11/13 08:15:59;;;;;;;39.35;26.00;;;;;;;;;;5050266;28;20033;-69
2022/11/13 08:18:25;;;;;;;25.35;18.05;;;;;;;;;;5053299;28;20379;-69
2022/11/13 08:20:50;;;;;;;19.02;13.40;;;;;;;;;;5050809;28;20020;-69
2022/11/13 08:23:16;;;;;;;16.83;11.75;;;;;;;;;;5045987;28;20055;-69
2022/11/13 08:25:41;;;;;;;15.30;11.60;;;;;;;;;;5045907;28;20016;-69
2022/11/13 08:28:06;;;;;;;15.35;11.98;;;;;;;;;;5047741;28;20029;-69
2022/11/13 08:30:31;;;;;;;18.08;11.77;;;;;;;;;;5047972;28;20077;-69
2022/11/13 08:32:56;;;;;;;19.05;11.80;;;;;;;;;;5045848;28;20122;-69
2022/11/13 08:35:22;;;;;;;14.30;11.70;;;;;;;;;;5045963;28;20029;-69
2022/11/13 08:37:47;;;;;;;15.25;11.90;;;;;;;;;;5041594;28;20279;-69
2022/11/13 08:40:12;;;;;;;15.45;12.35;;;;;;;;;;5045239;28;20025;-69
2022/11/13 08:42:38;;;;;;;15.88;12.07;;;;;;;;;;5042934;28;20782;-69
2022/11/13 08:45:03;;;;;;;14.57;11.15;;;;;;;;;;5044591;28;20018;-69
2022/11/13 08:47:29;;;;;;;14.15;11.60;;;;;;;;;;5047884;28;20481;-69
2022/11/13 08:49:54;;;;;;;14.85;11.55;;;;;;;;;;5047807;28;20103;-69
2022/11/13 08:52:20;;;;;;;14.23;10.45;;;;;;;;;;5047792;28;20415;-69
2022/11/13 08:54:45;;;;;;;12.57;8.45;;;;;;;;;;5045125;28;20429;-69
2022/11/13 08:57:10;;;;;;;12.77;9.85;;;;;;;;;;5046603;28;20021;-69
2022/11/13 08:59:36;;;;;;;14.23;9.65;;;;;;;;;;5038354;28;20124;-69
2022/11/13 09:02:01;;;;;;;13.18;9.63;;;;;;;;;;5039788;28;20107;-69
2022/11/13 09:04:26;;;;;;;10.53;9.23;;;;;;;;;;5047767;28;20033;-69
2022/11/13 09:06:52;;;;;;;15.50;10.23;;;;;;;;;;5036473;28;20276;-69
2022/11/13 09:09:20;;;;;;;14.63;9.60;;;;;;;;;;5044367;28;20112;-69
2022/11/13 09:11:46;;;;;;;12.40;8.93;;;;;;;;;;5043126;28;20119;-69
2022/11/13 09:14:11;;;;;;;14.93;9.25;;;;;;;;;;5039778;28;20131;-69
2022/11/13 09:16:36;;;;;;;11.43;9.13;;;;;;;;;;5032503;28;20029;-69
2022/11/13 09:19:02;;;;;;;13.48;9.18;;;;;;;;;;5047510;28;20075;-69
2022/11/13 09:21:28;;;;;;;13.38;8.27;;;;;;;;;;5033901;28;20021;-69
2022/11/13 09:23:53;;;;;;;12.77;8.82;;;;;;;;;;5043785;28;20021;-69
2022/11/13 09:26:18;;;;;;;9.52;7.85;;;;;;;;;;5029554;28;20020;-69
2022/11/13 09:28:43;;;;;;;10.53;7.53;;;;;;;;;;5044428;28;20516;-69
2022/11/13 09:31:09;;;;;;;10.23;7.10;;;;;;;;;;5045496;28;20318;-69
2022/11/13 09:33:34;;;;;;;10.55;7.10;;;;;;;;;;5040186;28;20052;-68
2022/11/13 09:35:59;;;;;;;10.93;6.97;;;;;;;;;;5027170;28;20029;-68
2022/11/13 09:38:25;;;;;;;10.77;7.60;;;;;;;;;;5044348;28;20033;-69
2022/11/13 09:40:56;;;;;;;10.07;6.85;;;;;;;;;;5046860;28;20029;-68
2022/11/13 09:43:27;;;;;;;10.82;7.03;;;;;;;;;;5045043;28;20136;-68
2022/11/13 09:45:54;;;;;;;13.77;6.90;;;;;;;;;;5048156;28;20111;-68
2022/11/13 09:48:25;;;;;;;8.82;6.55;;;;;;;;;;5048527;28;20051;-68
2022/11/13 09:50:50;;;;;;;10.85;6.47;;;;;;;;;;5051078;28;20467;-69
2022/11/13 09:53:16;;;;;;;12.07;7.38;;;;;;;;;;5048235;28;20032;-69
2022/11/13 09:55:47;;;;;;;8.90;6.22;;;;;;;;;;5047285;28;20017;-68
2022/11/13 09:58:23;;;;;;;10.52;7.07;;;;;;;;;;5047713;28;20057;-69
2022/11/13 10:00:48;;;;;;;8.18;6.30;;;;;;;;;;5048447;28;20492;-68
2022/11/13 10:03:16;;;;;;;9.57;6.70;;;;;;;;;;5045436;28;20021;-69
2022/11/13 10:05:41;;;;;;;8.82;6.50;;;;;;;;;;5044987;28;20143;-69
2022/11/13 10:08:06;;;;;;;10.00;6.37;;;;;;;;;;5048456;28;20092;-69
2022/11/13 10:10:39;;;;;;;9.70;6.43;;;;;;;;;;5047450;28;20297;-72
2022/11/13 10:13:04;;;;;;;8.93;6.72;;;;;;;;;;5046510;28;20025;-72
2022/11/13 10:15:30;;;;;;;7.47;5.55;;;;;;;;;;5039106;28;20082;-70
2022/11/13 10:17:58;;;;;;;7.47;5.63;;;;;;;;;;5047888;28;20021;-71
2022/11/13 10:20:43;;;;;;;10.02;6.20;;;;;;;;;;5048664;28;20025;-68
2022/11/13 10:23:15;;;;;;;10.73;6.10;;;;;;;;;;5046737;28;20128;-67
2022/11/13 10:25:41;;;;;;;10.77;5.72;;;;;;;;;;5048370;28;20468;-68
2022/11/13 10:28:17;;;;;;;11.43;6.68;;;;;;;;;;5050885;28;20030;-69
2022/11/13 10:30:42;;;;;;;12.13;6.03;;;;;;;;;;5046155;28;20504;-70
2022/11/13 10:33:08;;;;;;;7.82;5.45;;;;;;;;;;5045859;28;20040;-72
2022/11/13 10:35:47;;;;;;;7.28;6.22;;;;;;;;;;5038202;28;20025;-71
2022/11/13 10:38:13;;;;;;;10.40;6.53;;;;;;;;;;5037005;28;20063;-69
2022/11/13 10:40:38;;;;;;;13.03;6.13;;;;;;;;;;5039046;28;20033;-74
2022/11/13 10:43:10;;;;;;;7.03;5.55;;;;;;;;;;5044570;28;20114;-74
2022/11/13 10:45:38;;;;;;;8.38;5.72;;;;;;;;;;5038775;28;20082;-73
2022/11/13 10:48:04;;;;;;;9.88;6.07;;;;;;;;;;5042568;28;20028;-70
2022/11/13 10:50:30;;;;;;;8.52;6.00;;;;;;;;;;5050305;28;20013;-67
2022/11/13 10:52:56;;;;;;;8.30;5.95;;;;;;;;;;5046624;28;20455;-71
2022/11/13 10:55:28;;;;;;;11.00;6.60;;;;;;;;;;5044742;28;20108;-71
2022/11/13 10:57:55;;;;;;;9.40;5.50;;;;;;;;;;5031350;28;20032;-71
2022/11/13 11:00:22;;;;;;;8.75;6.38;;;;;;;;;;5042769;28;20033;-71
2022/11/13 11:02:48;;;;;;;10.50;6.25;;;;;;;;;;5046433;28;20056;-71
2022/11/13 11:05:19;;;;;;;8.43;5.38;;;;;;;;;;5044456;28;20096;-71
2022/11/13 11:07:44;;;;;;;6.68;4.85;;;;;;;;;;5047705;28;20107;-67
2022/11/13 11:10:28;;;;;;;7.28;5.13;;;;;;;;;;5043161;28;20869;-69
2022/11/13 11:12:55;;;;;;;7.03;5.13;;;;;;;;;;5038410;28;20053;-69
2022/11/13 11:15:38;;;;;;;6.63;4.18;;;;;;;;;;5037001;28;20391;-69
2022/11/13 11:18:11;;;;;;;5.82;3.92;;;;;;;;;;5043066;28;20013;-70
2022/11/13 11:20:48;;;;;;;5.82;4.10;;;;;;;;;;5048485;28;20031;-68
2022/11/13 11:23:32;;;;;;;4.22;3.28;;;;;;;;;;5046439;28;20021;-69
2022/11/13 11:25:59;;;;;;;5.90;4.15;;;;;;;;;;5045470;28;20105;-67
2022/11/13 11:28:36;;;;;;;7.07;4.25;;;;;;;;;;5035071;28;20064;-70
2022/11/13 11:31:16;;;;;;;5.45;3.40;;;;;;;;;;5027827;28;20053;-68
2022/11/13 11:33:49;;;;;;;5.60;3.42;;;;;;;;;;5028209;28;20368;-67
2022/11/13 11:36:15;;;;;;;5.05;3.15;;;;;;;;;;5030337;28;20025;-68
2022/11/13 11:38:53;;;;;;;5.40;3.50;;;;;;;;;;5029298;28;20029;-70
2022/11/13 11:41:20;;;;;;;4.07;2.78;;;;;;;;;;5039659;28;20825;-70
2022/11/13 11:43:48;;;;;;;4.78;3.13;;;;;;;;;;5042633;28;20033;-68
2022/11/13 11:46:18;;;;;;;6.70;3.00;;;;;;;;;;5050015;28;20063;-68
2022/11/13 11:48:43;;;;;;;4.97;2.97;;;;;;;;;;5049830;28;20466;-68
2022/11/13 11:51:14;;;;;;;5.88;3.10;;;;;;;;;;5047771;28;20029;-67
2022/11/13 11:53:55;;;;;;;5.50;3.15;;;;;;;;;;5061238;28;20703;-69
2022/11/13 11:56:22;;;;;;;4.97;3.50;;;;;;;;;;5024627;28;20097;-71
2022/11/13 11:58:59;;;;;;;4.97;3.40;;;;;;;;;;5037825;28;20066;-70
2022/11/13 12:01:24;;;;;;;7.38;4.18;;;;;;;;;;5044059;28;20017;-68
2022/11/13 12:03:49;;;;;;;6.83;3.73;;;;;;;;;;5044728;28;20964;-66
2022/11/13 12:06:15;;;;;;;5.70;3.30;;;;;;;;;;5043792;28;20051;-71
2022/11/13 12:08:48;;;;;;;6.80;3.97;;;;;;;;;;5045051;28;20279;-69
2022/11/13 12:11:23;;;;;;;5.25;3.92;;;;;;;;;;5042295;28;20016;-70
2022/11/13 12:13:54;;;;;;;6.10;4.10;;;;;;;;;;5035220;28;20554;-70
2022/11/13 12:16:33;;;;;;;4.70;3.53;;;;;;;;;;5042897;28;20017;-70
2022/11/13 12:19:03;;;;;;;5.05;3.65;;;;;;;;;;5052856;28;20040;-69
2022/11/13 12:21:32;;;;;;;6.65;3.95;;;;;;;;;;5051995;28;20013;-69
2022/11/13 12:24:15;;;;;;;5.55;3.35;;;;;;;;;;5052744;28;20040;-69
2022/11/13 12:26:41;;;;;;;5.88;4.22;;;;;;;;;;5053112;28;20048;-70
2022/11/13 12:29:12;;;;;;;5.37;4.00;;;;;;;;;;5052151;28;20063;-70
2022/11/13 12:31:40;;;;;;;5.85;3.88;;;;;;;;;;5052487;28;20291;-70
2022/11/13 12:34:17;;;;;;;6.75;4.38;;;;;;;;;;5048361;28;20032;-69
2022/11/13 12:36:43;;;;;;;5.53;3.92;;;;;;;;;;5001801;28;20021;-70
2022/11/13 12:39:11;;;;;;;4.55;3.40;;;;;;;;;;5014090;28;20881;-70
2022/11/13 12:41:53;;;;;;;6.93;4.07;;;;;;;;;;5037252;28;20415;-69
2022/11/13 12:44:26;;;;;;;6.35;3.97;;;;;;;;;;5007487;28;20481;-70
2022/11/13 12:46:52;;;;;;;4.93;3.83;;;;;;;;;;5017972;28;20048;-70
2022/11/13 12:49:25;;;;;;;3.33;2.78;;;;;;;;;;5012578;28;20021;-70
2022/11/13 12:51:58;;;;;;;5.72;2.80;;;;;;;;;;5038712;28;20052;-69
2022/11/13 12:54:26;;;;;;;6.03;3.53;;;;;;;;;;5051540;28;20028;-70
2022/11/13 12:56:51;;;;;;;7.32;3.25;;;;;;;;;;5052454;28;20108;-69
2022/11/13 12:59:16;;;;;;;5.43;3.13;;;;;;;;;;5049717;28;20095;-70
2022/11/13 13:01:46;;;;;;;4.47;2.80;;;;;;;;;;5040113;28;20471;-70
2022/11/13 13:04:27;;;;;;;3.58;2.33;;;;;;;;;;5052075;28;20459;-70
2022/11/13 13:07:07;;;;;;;4.55;1.83;;;;;;;;;;5069398;28;20024;-70
2022/11/13 13:09:36;;;;;;;5.20;2.45;;;;;;;;;;5052186;28;20538;-70
2022/11/13 13:12:06;;;;;;;2.88;1.70;;;;;;;;;;5050568;28;20033;-72
2022/11/13 13:14:34;;;;;;;5.82;2.17;;;;;;;;;;5051849;28;20566;-70
2022/11/13 13:17:26;;;;;;;4.78;2.20;;;;;;;;;;5052078;28;20063;-71
2022/11/13 13:19:58;;;;;;;3.83;2.10;;;;;;;;;;5048745;28;20047;-70
2022/11/13 13:22:28;;;;;;;4.07;2.00;;;;;;;;;;5048267;28;20021;-70
2022/11/13 13:24:59;;;;;;;2.88;1.75;;;;;;;;;;5051260;28;20021;-70
2022/11/13 13:27:29;;;;;;;4.28;2.08;;;;;;;;;;5037221;28;20109;-71
2022/11/13 13:29:54;;;;;;;2.88;1.77;;;;;;;;;;5051604;28;20025;-70
2022/11/13 13:32:19;;;;;;;3.08;1.80;;;;;;;;;;5052036;28;20021;-71
2022/11/13 13:34:56;;;;;;;4.50;1.87;;;;;;;;;;5037143;28;20072;-71
2022/11/13 13:37:39;;;;;;;2.17;1.30;;;;;;;;;;5045055;28;20120;-71
2022/11/13 13:40:11;;;;;;;6.40;1.65;;;;;;;;;;5048854;28;20328;-71
2022/11/13 13:42:36;;;;;;;2.50;1.55;;;;;;;;;;5052113;28;20494;-71
2022/11/13 13:45:09;;;;;;;5.13;1.95;;;;;;;;;;5049841;28;20104;-71
2022/11/13 13:47:38;;;;;;;2.67;1.58;;;;;;;;;;4996602;28;20036;-72
2022/11/13 13:50:11;;;;;;;3.45;1.73;;;;;;;;;;5010797;28;20187;-71
2022/11/13 13:52:37;;;;;;;4.63;1.60;;;;;;;;;;5050670;28;20029;-71
2022/11/13 13:55:05;;;;;;;2.80;1.48;;;;;;;;;;5051474;28;20170;-71
2022/11/13 13:57:30;;;;;;;6.97;1.88;;;;;;;;;;5052106;28;20044;-71
2022/11/13 13:59:56;;;;;;;2.83;1.48;;;;;;;;;;5039373;28;20460;-70
2022/11/13 14:02:22;;;;;;;3.60;1.85;;;;;;;;;;5047962;28;20017;-70
2022/11/13 14:04:48;;;;;;;2.85;1.63;;;;;;;;;;5055685;28;20481;-70
2022/11/13 14:07:21;;;;;;;2.35;1.33;;;;;;;;;;5054941;28;20024;-71
2022/11/13 14:09:47;;;;;;;3.67;1.83;;;;;;;;;;5054418;28;20058;-70
2022/11/13 14:12:20;;;;;;;2.50;1.80;;;;;;;;;;5051316;28;20030;-70
2022/11/13 14:14:45;;;;;;;4.53;1.65;;;;;;;;;;5036704;28;20264;-69
2022/11/13 14:17:11;;;;;;;2.80;1.40;;;;;;;;;;5037372;28;20028;-69
2022/11/13 14:19:37;;;;;;;2.83;1.75;;;;;;;;;;5034286;28;20025;-70
2022/11/13 14:22:03;;;;;;;2.80;1.52;;;;;;;;;;5055099;28;20367;-70
2022/11/13 14:24:32;;;;;;;3.25;1.27;;;;;;;;;;5055738;28;20024;-70
2022/11/13 14:26:59;;;;;;;2.97;1.80;;;;;;;;;;5052726;28;20020;-71